Time;durP1;ratioP1;P1;durP2;ratioP2;P2;SDS_P1;SDS_P2;PMS_P1;PMS_P2;Temp;Humidity;BMP_temperature;BMP_pressure;BME280_temperature;BME280_humidity;BME280_pressure;Samples;Min_cycle;Max_cycle;Signal;HPM_P1;HPM_P2
2022/09/12 00:00:49;;;;;;;10.05;5.43;;;;;;;11.04;100.00;98539.31;2581911;28;20056;-85
2022/09/12 00:02:23;;;;;;;9.93;5.88;;;;;;;10.99;100.00;98536.84;2585834;28;20046;-85
2022/09/12 00:03:39;;;;;;;10.25;6.10;;;;;;;11.02;100.00;98539.34;2584097;28;20069;-85
2022/09/12 00:04:54;;;;;;;11.45;6.18;;;;;;;11.04;100.00;98542.81;2587097;28;20439;-85
2022/09/12 00:06:32;;;;;;;9.02;5.63;;;;;;;10.94;100.00;98544.81;2584164;28;20124;-85
2022/09/12 00:07:48;;;;;;;12.25;5.80;;;;;;;11.08;100.00;98540.94;2583305;28;20086;-86
2022/09/12 00:09:07;;;;;;;9.60;5.63;;;;;;;11.11;100.00;98539.09;2586830;28;20474;-89
2022/09/12 00:10:23;;;;;;;9.75;5.90;;;;;;;11.02;100.00;98541.97;2586152;28;20046;-86
2022/09/12 00:11:42;;;;;;;9.80;5.65;;;;;;;10.94;100.00;98539.56;2584171;28;20049;-86
2022/09/12 00:12:57;;;;;;;8.90;5.40;;;;;;;11.00;100.00;98546.41;2584047;28;20088;-84
2022/09/12 00:14:16;;;;;;;8.27;5.25;;;;;;;10.91;100.00;98534.44;2582576;28;20046;-85
2022/09/12 00:15:36;;;;;;;9.18;5.45;;;;;;;10.71;100.00;98537.59;2578071;28;20111;-85
2022/09/12 00:16:56;;;;;;;10.18;5.28;;;;;;;10.58;100.00;98543.16;2584194;28;20538;-88
2022/09/12 00:18:15;;;;;;;8.38;5.60;;;;;;;10.68;100.00;98540.28;2584025;28;20478;-86
2022/09/12 00:19:32;;;;;;;10.35;5.25;;;;;;;10.66;100.00;98544.72;2585893;28;20468;-85
2022/09/12 00:20:48;;;;;;;9.93;5.53;;;;;;;10.73;100.00;98536.66;2581855;28;20042;-86
2022/09/12 00:22:03;;;;;;;9.85;5.45;;;;;;;10.83;100.00;98536.41;2584707;28;20532;-85
2022/09/12 00:23:19;;;;;;;10.23;5.88;;;;;;;10.88;100.00;98535.34;2581671;28;20054;-89
2022/09/12 00:24:34;;;;;;;8.00;5.00;;;;;;;10.86;100.00;98529.31;2586913;28;20073;-86
2022/09/12 00:25:50;;;;;;;9.10;5.43;;;;;;;10.91;100.00;98530.97;2586159;28;20069;-85
2022/09/12 00:27:06;;;;;;;7.28;5.30;;;;;;;10.97;100.00;98536.88;2583876;28;20061;-85
2022/09/12 00:28:21;;;;;;;7.43;5.53;;;;;;;11.00;100.00;98530.69;2584993;28;20053;-85
2022/09/12 00:29:37;;;;;;;9.30;5.93;;;;;;;11.03;100.00;98533.22;2586082;28;20057;-84
2022/09/12 00:30:52;;;;;;;10.48;5.28;;;;;;;11.02;100.00;98532.38;2584805;28;20068;-84
2022/09/12 00:32:08;;;;;;;8.02;5.30;;;;;;;11.05;100.00;98527.94;2585637;28;20711;-85
2022/09/12 00:33:24;;;;;;;6.90;4.93;;;;;;;11.08;100.00;98535.72;2585462;28;20057;-86
2022/09/12 00:34:40;;;;;;;10.98;5.00;;;;;;;11.01;100.00;98529.78;2585382;28;20535;-86
2022/09/12 00:35:55;;;;;;;9.02;5.28;;;;;;;10.95;100.00;98535.22;2585912;28;20069;-85
2022/09/12 00:37:11;;;;;;;7.53;4.78;;;;;;;10.94;100.00;98534.34;2585375;28;20530;-85
2022/09/12 00:38:27;;;;;;;9.80;5.57;;;;;;;10.93;100.00;98531.78;2583254;28;20436;-85
2022/09/12 00:39:43;;;;;;;8.85;5.32;;;;;;;10.74;100.00;98530.53;2583396;28;20420;-85
2022/09/12 00:40:58;;;;;;;8.30;5.18;;;;;;;10.63;100.00;98532.56;2587601;28;20520;-85
2022/09/12 00:42:15;;;;;;;6.97;4.95;;;;;;;10.68;100.00;98525.44;2586938;28;20057;-85
2022/09/12 00:43:45;;;;;;;8.02;5.30;;;;;;;10.57;100.00;98536.19;2586383;28;20112;-89
2022/09/12 00:45:01;;;;;;;7.60;5.35;;;;;;;10.65;100.00;98529.91;2584618;28;20053;-86
2022/09/12 00:46:34;;;;;;;10.07;5.70;;;;;;;10.54;100.00;98536.28;2587632;28;20077;-86
2022/09/12 00:47:50;;;;;;;11.13;5.70;;;;;;;10.61;100.00;98523.91;2583507;28;20076;-85
2022/09/12 00:49:20;;;;;;;8.82;5.72;;;;;;;10.47;100.00;98531.25;2586775;28;20053;-85
2022/09/12 00:50:36;;;;;;;8.82;5.28;;;;;;;10.45;100.00;98532.16;2577769;28;20486;-85
2022/09/12 00:51:59;;;;;;;9.93;5.18;;;;;;;10.42;100.00;98528.75;2586042;28;20166;-85
2022/09/12 00:53:15;;;;;;;8.32;5.63;;;;;;;10.37;100.00;98528.00;2584826;28;20065;-88
2022/09/12 00:54:37;;;;;;;10.75;5.85;;;;;;;10.46;100.00;98527.75;2586067;28;20050;-85
2022/09/12 00:55:55;;;;;;;9.82;5.43;;;;;;;10.49;100.00;98524.22;2584993;28;20099;-87
2022/09/12 00:57:14;;;;;;;8.55;5.35;;;;;;;10.55;100.00;98522.28;2585706;28;20053;-85
2022/09/12 00:58:42;;;;;;;11.43;5.15;;;;;;;10.51;100.00;98525.03;2584931;28;20428;-86
2022/09/12 01:00:11;;;;;;;8.35;5.47;;;;;;;10.65;100.00;98509.81;2585600;28;20611;-85
2022/09/12 01:01:26;;;;;;;9.90;5.35;;;;;;;10.52;100.00;98511.91;2585851;28;20050;-86
2022/09/12 01:02:44;;;;;;;9.60;5.70;;;;;;;10.48;100.00;98515.53;2584853;28;21030;-86
2022/09/12 01:04:01;;;;;;;12.73;6.03;;;;;;;10.54;100.00;98510.09;2585882;28;20054;-86
2022/09/12 01:05:16;;;;;;;9.50;5.60;;;;;;;10.69;100.00;98508.84;2585062;28;20449;-86
2022/09/12 01:06:37;;;;;;;11.15;6.65;;;;;;;10.65;100.00;98511.59;2585005;28;20069;-86
2022/09/12 01:07:55;;;;;;;8.73;5.70;;;;;;;10.41;100.00;98511.34;2585039;28;20459;-86
2022/09/12 01:09:17;;;;;;;9.43;5.85;;;;;;;10.38;100.00;98514.00;2585376;28;20082;-87
2022/09/12 01:10:36;;;;;;;11.45;6.95;;;;;;;10.49;100.00;98518.97;2585485;28;20090;-85
2022/09/12 01:11:52;;;;;;;9.88;5.55;;;;;;;10.54;100.00;98514.47;2585046;28;20069;-86
2022/09/12 01:13:09;;;;;;;10.05;6.70;;;;;;;10.50;100.00;98505.88;2585822;28;20249;-86
2022/09/12 01:14:25;;;;;;;11.23;6.18;;;;;;;10.51;100.00;98514.56;2584800;28;20497;-85
2022/09/12 01:15:41;;;;;;;10.23;6.07;;;;;;;10.50;100.00;98508.47;2585661;28;20101;-85
2022/09/12 01:16:56;;;;;;;8.15;5.50;;;;;;;10.53;100.00;98513.63;2585040;28;20053;-85
2022/09/12 01:18:20;;;;;;;10.30;5.80;;;;;;;10.52;100.00;98508.41;2576230;28;20093;-87
2022/09/12 01:20:11;;;;;;;12.68;5.45;;;;;;;10.45;100.00;98513.84;2580382;28;20053;-85
2022/09/12 01:21:42;;;;;;;8.25;5.60;;;;;;;10.54;100.00;98504.88;2585280;28;20052;-84
2022/09/12 01:23:37;;;;;;;9.20;5.90;;;;;;;10.49;100.00;98513.75;2585729;28;20080;-85
2022/09/12 01:24:59;;;;;;;10.48;5.32;;;;;;;10.43;100.00;98506.91;2585562;28;20222;-85
2022/09/12 01:26:42;;;;;;;8.75;5.60;;;;;;;10.43;100.00;98501.69;2586468;28;20077;-85
2022/09/12 01:28:27;;;;;;;10.02;5.70;;;;;;;10.29;100.00;98505.47;2586541;28;20065;-85
2022/09/12 01:30:20;;;;;;;8.20;5.05;;;;;;;10.12;100.00;98508.53;2584340;28;20489;-89
2022/09/12 01:31:46;;;;;;;10.85;5.72;;;;;;;10.07;100.00;98502.56;2543777;29;20087;-85
2022/09/12 01:33:37;;;;;;;9.57;4.90;;;;;;;10.07;100.00;98507.78;2544504;29;20071;-86
2022/09/12 01:35:28;;;;;;;13.23;5.18;;;;;;;10.00;100.00;98504.47;2552032;29;20130;-87
2022/09/12 01:37:11;;;;;;;9.63;5.18;;;;;;;10.08;100.00;98501.66;2567676;28;21082;-85
2022/09/12 01:38:53;;;;;;;9.95;5.20;;;;;;;10.11;100.00;98491.09;2585929;28;20069;-88
2022/09/12 01:40:22;;;;;;;9.77;5.60;;;;;;;10.09;100.00;98495.53;2578978;28;20096;-86
2022/09/12 01:41:53;;;;;;;11.90;5.15;;;;;;;9.94;100.00;98499.41;2579119;28;20058;-86
2022/09/12 01:43:25;;;;;;;11.33;5.50;;;;;;;9.89;100.00;98501.25;2577324;28;20080;-85
2022/09/12 01:45:02;;;;;;;7.82;5.10;;;;;;;9.82;100.00;98500.53;2579274;28;20467;-86
2022/09/12 01:46:32;;;;;;;7.88;5.20;;;;;;;9.71;100.00;98499.94;2576675;28;20085;-86
2022/09/12 01:48:00;;;;;;;8.13;4.55;;;;;;;9.88;100.00;98497.78;2578411;28;20058;-85
2022/09/12 01:49:28;;;;;;;7.55;5.07;;;;;;;9.92;100.00;98497.69;2578123;28;20054;-85
2022/09/12 01:50:50;;;;;;;8.32;5.30;;;;;;;9.92;100.00;98495.97;2578709;28;20053;-86
2022/09/12 01:52:19;;;;;;;8.90;5.35;;;;;;;9.79;100.00;98502.38;2579439;28;20706;-85
2022/09/12 01:53:50;;;;;;;9.27;5.00;;;;;;;9.70;100.00;98496.47;2578743;28;20987;-87
2022/09/12 01:55:11;;;;;;;10.80;4.65;;;;;;;9.79;100.00;98497.16;2580457;28;20053;-85
2022/09/12 01:56:32;;;;;;;8.15;5.47;;;;;;;9.81;100.00;98498.81;2577859;28;20065;-86
2022/09/12 01:57:56;;;;;;;7.40;4.43;;;;;;;9.83;100.00;98504.03;2578649;28;20140;-86
2022/09/12 01:59:27;;;;;;;11.13;5.43;;;;;;;9.90;100.00;98500.34;2578253;28;20046;-90
2022/09/12 02:00:58;;;;;;;9.18;5.13;;;;;;;9.89;100.00;98498.63;2578714;28;20055;-85
2022/09/12 02:02:20;;;;;;;7.03;4.95;;;;;;;9.93;100.00;98496.81;2576577;28;20054;-86
2022/09/12 02:03:43;;;;;;;9.35;5.50;;;;;;;9.88;100.00;98500.41;2578363;28;20501;-88
2022/09/12 02:05:13;;;;;;;7.57;4.93;;;;;;;9.92;100.00;98502.94;2578421;28;20074;-88
2022/09/12 02:06:54;;;;;;;7.95;4.97;;;;;;;9.92;100.00;98493.34;2577902;28;20178;-86
2022/09/12 02:08:21;;;;;;;10.35;5.10;;;;;;;9.69;100.00;98502.59;2578506;28;20050;-89
2022/09/12 02:09:45;;;;;;;9.07;5.05;;;;;;;9.49;100.00;98496.94;2579402;28;20496;-86
2022/09/12 02:11:05;;;;;;;7.40;4.57;;;;;;;9.51;100.00;98501.25;2578715;28;20104;-86
2022/09/12 02:12:26;;;;;;;7.00;4.82;;;;;;;9.65;100.00;98498.34;2578776;28;20058;-88
2022/09/12 02:13:54;;;;;;;7.78;4.82;;;;;;;9.65;100.00;98503.56;2578013;28;20444;-86
2022/09/12 02:15:11;;;;;;;12.00;5.50;;;;;;;9.68;100.00;98495.66;2579818;28;20050;-86
2022/09/12 02:16:49;;;;;;;7.93;4.90;;;;;;;9.46;100.00;98497.91;2580001;28;20058;-86
2022/09/12 02:18:06;;;;;;;6.80;4.68;;;;;;;9.29;100.00;98495.66;2578987;28;20058;-87
2022/09/12 02:19:26;;;;;;;11.60;4.97;;;;;;;9.25;100.00;98488.78;2577787;28;20137;-86
2022/09/12 02:20:43;;;;;;;8.38;4.63;;;;;;;9.11;100.00;98503.00;2579536;28;20507;-86
2022/09/12 02:22:01;;;;;;;7.47;4.28;;;;;;;9.23;100.00;98495.78;2578263;28;20201;-86
2022/09/12 02:23:25;;;;;;;9.57;5.18;;;;;;;9.36;100.00;98494.63;2579726;28;20090;-86
2022/09/12 02:24:44;;;;;;;8.80;5.22;;;;;;;9.46;100.00;98493.50;2577558;28;20119;-89
2022/09/12 02:26:07;;;;;;;9.73;5.43;;;;;;;9.48;100.00;98490.88;2578810;28;20390;-86
2022/09/12 02:27:29;;;;;;;8.75;5.07;;;;;;;9.49;100.00;98489.97;2580910;28;20046;-85
2022/09/12 02:28:45;;;;;;;9.40;5.75;;;;;;;9.58;100.00;98495.00;2578134;28;20050;-86
2022/09/12 02:30:01;;;;;;;8.50;4.82;;;;;;;9.44;100.00;98494.47;2579718;28;20096;-85
2022/09/12 02:31:22;;;;;;;16.92;4.78;;;;;;;9.47;100.00;98491.78;2577585;28;20047;-85
2022/09/12 02:33:00;;;;;;;34.30;4.70;;;;;;;9.43;100.00;98490.97;2578928;28;20070;-86
2022/09/12 02:34:45;;;;;;;52.63;6.55;;;;;;;9.46;100.00;98493.50;2580294;28;20104;-86
2022/09/12 02:36:14;;;;;;;45.45;6.68;;;;;;;9.70;100.00;98495.59;2574615;28;20428;-85
2022/09/12 02:37:41;;;;;;;156.10;12.80;;;;;;;9.74;100.00;98494.66;2577912;28;20133;-87
2022/09/12 02:38:56;;;;;;;38.97;6.15;;;;;;;9.67;100.00;98493.06;2578756;28;20050;-87
2022/09/12 02:40:13;;;;;;;34.75;5.18;;;;;;;9.53;100.00;98483.78;2585147;28;20488;-86
2022/09/12 02:41:28;;;;;;;52.70;6.15;;;;;;;9.58;100.00;98491.53;2583353;28;20073;-88
2022/09/12 02:42:44;;;;;;;42.88;5.80;;;;;;;9.56;100.00;98488.09;2582524;28;20050;-87
2022/09/12 02:44:00;;;;;;;17.75;5.30;;;;;;;9.42;100.00;98484.03;2584301;28;20389;-86
2022/09/12 02:45:17;;;;;;;11.82;4.45;;;;;;;9.41;100.00;98484.94;2582157;28;20081;-86
2022/09/12 02:46:39;;;;;;;9.93;5.38;;;;;;;9.31;100.00;98486.03;2574169;28;20042;-86
2022/09/12 02:48:01;;;;;;;8.80;5.05;;;;;;;9.51;100.00;98482.13;2585105;28;20650;-88
2022/09/12 02:49:17;;;;;;;7.43;4.97;;;;;;;9.51;100.00;98484.72;2580735;28;20077;-87
2022/09/12 02:50:33;;;;;;;10.75;5.68;;;;;;;9.56;100.00;98483.69;2585162;28;20046;-86
2022/09/12 02:51:49;;;;;;;9.57;5.40;;;;;;;9.63;100.00;98487.03;2584337;28;20933;-87
2022/09/12 02:53:06;;;;;;;11.70;6.15;;;;;;;9.52;100.00;98484.69;2585288;28;20104;-85
2022/09/12 02:54:23;;;;;;;9.70;5.55;;;;;;;9.46;100.00;98483.06;2583822;28;20140;-86
2022/09/12 02:55:40;;;;;;;9.23;5.60;;;;;;;9.50;100.00;98475.16;2585333;28;20049;-85
2022/09/12 02:56:56;;;;;;;12.73;5.47;;;;;;;9.45;100.00;98478.72;2585172;28;20054;-85
2022/09/12 02:58:17;;;;;;;11.45;6.10;;;;;;;9.40;100.00;98482.34;2585819;28;20081;-86
2022/09/12 02:59:32;;;;;;;7.38;5.00;;;;;;;9.43;100.00;98487.53;2581120;28;20530;-88
2022/09/12 03:01:06;;;;;;;7.70;5.05;;;;;;;9.45;100.00;98488.34;2581766;28;20050;-86
2022/09/12 03:02:51;;;;;;;9.23;4.95;;;;;;;9.50;100.00;98485.59;2584291;28;20467;-85
2022/09/12 03:04:40;;;;;;;8.50;4.97;;;;;;;9.43;100.00;98482.28;2559626;28;20065;-85
2022/09/12 03:06:02;;;;;;;17.90;5.30;;;;;;;9.53;100.00;98488.16;2584443;28;20503;-84
2022/09/12 03:07:32;;;;;;;20.48;4.95;;;;;;;9.49;100.00;98491.72;2584418;28;20076;-87
2022/09/12 03:08:59;;;;;;;37.63;6.40;;;;;;;9.48;100.00;98483.03;2584633;28;20092;-85
2022/09/12 03:10:23;;;;;;;38.58;5.45;;;;;;;9.37;100.00;98487.63;2584483;28;20072;-85
2022/09/12 03:11:52;;;;;;;64.07;6.28;;;;;;;9.48;100.00;98490.88;2585221;28;20136;-86
2022/09/12 03:13:37;;;;;;;11.57;4.22;;;;;;;9.34;100.00;98491.16;2584944;28;20416;-87
2022/09/12 03:15:19;;;;;;;13.93;4.95;;;;;;;9.34;100.00;98488.56;2585157;28;20635;-85
2022/09/12 03:17:00;;;;;;;8.48;4.15;;;;;;;9.36;100.00;98492.03;2584402;28;20046;-86
2022/09/12 03:18:39;;;;;;;29.58;4.65;;;;;;;9.44;100.00;98490.09;2583963;28;20050;-86
2022/09/12 03:20:08;;;;;;;17.15;4.20;;;;;;;9.66;100.00;98491.34;2584928;28;20238;-87
2022/09/12 03:21:44;;;;;;;26.75;4.80;;;;;;;9.71;100.00;98485.09;2583407;28;20050;-85
2022/09/12 03:23:33;;;;;;;50.67;5.10;;;;;;;9.72;100.00;98489.44;2584756;28;20471;-88
2022/09/12 03:25:31;;;;;;;51.10;7.22;;;;;;;9.61;100.00;98488.81;2585011;28;20057;-87
2022/09/12 03:26:54;;;;;;;48.28;6.10;;;;;;;9.60;100.00;98490.59;2583801;28;20056;-87
2022/09/12 03:28:15;;;;;;;38.33;4.82;;;;;;;9.67;100.00;98487.81;2585317;28;20165;-86
2022/09/12 03:29:31;;;;;;;39.97;4.97;;;;;;;9.65;100.00;98474.81;2583712;28;20468;-89
2022/09/12 03:30:50;;;;;;;22.90;5.22;;;;;;;9.52;100.00;98481.22;2584425;28;20088;-86
2022/09/12 03:32:06;;;;;;;23.10;4.47;;;;;;;9.47;100.00;98484.78;2584038;28;20448;-86
2022/09/12 03:33:23;;;;;;;14.45;3.90;;;;;;;9.43;100.00;98483.13;2584603;28;20057;-89
2022/09/12 03:34:39;;;;;;;30.45;4.63;;;;;;;9.51;100.00;98484.72;2584091;28;20049;-86
2022/09/12 03:35:55;;;;;;;29.65;4.80;;;;;;;9.40;100.00;98479.72;2584444;28;20149;-86
2022/09/12 03:37:10;;;;;;;41.78;5.38;;;;;;;9.47;100.00;98486.56;2583928;28;20073;-87
2022/09/12 03:38:26;;;;;;;33.00;4.85;;;;;;;9.48;100.00;98485.66;2583238;28;20060;-89
2022/09/12 03:39:41;;;;;;;19.25;4.80;;;;;;;9.46;100.00;98488.28;2583686;28;20096;-86
2022/09/12 03:40:57;;;;;;;8.20;4.45;;;;;;;9.50;100.00;98489.09;2584274;28;20061;-86
2022/09/12 03:42:13;;;;;;;16.38;4.63;;;;;;;9.51;100.00;98482.13;2584348;28;20933;-87
2022/09/12 03:43:28;;;;;;;19.38;5.45;;;;;;;9.50;100.00;98486.47;2584175;28;20054;-86
2022/09/12 03:44:44;;;;;;;37.17;6.55;;;;;;;9.51;100.00;98485.56;2584865;28;20046;-86
2022/09/12 03:46:00;;;;;;;11.38;5.40;;;;;;;9.57;100.00;98480.22;2585084;28;20488;-86
2022/09/12 03:47:15;;;;;;;10.13;6.07;;;;;;;9.64;100.00;98483.56;2584359;28;20423;-86
2022/09/12 03:48:31;;;;;;;13.43;5.63;;;;;;;9.67;100.00;98474.75;2584833;28;20583;-86
2022/09/12 03:49:46;;;;;;;8.07;5.18;;;;;;;9.69;100.00;98489.53;2584106;28;20061;-86
2022/09/12 03:51:05;;;;;;;15.32;5.70;;;;;;;9.61;100.00;98481.84;2584316;28;20061;-87
2022/09/12 03:52:20;;;;;;;11.82;5.68;;;;;;;9.63;100.00;98483.56;2583943;28;20054;-86
2022/09/12 03:53:36;;;;;;;17.40;6.00;;;;;;;9.72;100.00;98493.81;2583902;28;20088;-87
2022/09/12 03:54:51;;;;;;;15.82;6.93;;;;;;;9.78;100.00;98492.78;2584893;28;20496;-86
2022/09/12 03:56:09;;;;;;;15.77;6.80;;;;;;;9.84;100.00;98484.81;2583755;28;20068;-85
2022/09/12 03:57:25;;;;;;;17.23;6.43;;;;;;;9.98;100.00;98490.56;2584695;28;20489;-86
2022/09/12 03:58:41;;;;;;;19.98;6.35;;;;;;;9.88;100.00;98491.69;2583673;28;20402;-88
2022/09/12 03:59:56;;;;;;;22.52;5.80;;;;;;;9.90;100.00;98492.50;2583748;28;20542;-85
2022/09/12 04:01:17;;;;;;;14.98;6.60;;;;;;;9.96;100.00;98494.97;2582770;28;20056;-85
2022/09/12 04:02:34;;;;;;;48.15;7.65;;;;;;;9.96;100.00;98487.13;2584371;28;20405;-86
2022/09/12 04:03:51;;;;;;;48.08;6.18;;;;;;;9.94;100.00;98499.41;2583374;28;20081;-86
2022/09/12 04:05:07;;;;;;;62.00;7.45;;;;;;;9.91;100.00;98502.06;2584288;28;20493;-86
2022/09/12 04:06:22;;;;;;;82.63;8.02;;;;;;;9.85;100.00;98497.88;2583879;28;20050;-86
2022/09/12 04:07:38;;;;;;;81.57;9.32;;;;;;;9.94;100.00;98493.28;2586213;28;20050;-85
2022/09/12 04:08:54;;;;;;;66.45;7.75;;;;;;;10.00;100.00;98491.38;2585399;28;20050;-86
2022/09/12 04:10:10;;;;;;;73.30;8.82;;;;;;;10.06;100.00;98497.34;2586189;28;20099;-84
2022/09/12 04:11:26;;;;;;;31.33;6.57;;;;;;;10.00;100.00;98491.38;2585700;28;20196;-85
2022/09/12 04:12:42;;;;;;;16.15;6.43;;;;;;;10.08;100.00;98496.41;2586065;28;20054;-90
2022/09/12 04:13:58;;;;;;;49.50;6.57;;;;;;;10.21;100.00;98493.50;2585554;28;20057;-86
2022/09/12 04:15:13;;;;;;;62.30;8.25;;;;;;;10.28;100.00;98490.69;2586261;28;20061;-86
2022/09/12 04:16:30;;;;;;;36.17;7.05;;;;;;;10.30;100.00;98496.72;2585353;28;20058;-85
2022/09/12 04:17:45;;;;;;;32.00;6.97;;;;;;;10.20;100.00;98497.88;2585998;28;20480;-84
2022/09/12 04:19:01;;;;;;;40.90;7.28;;;;;;;10.31;100.00;98495.00;2585699;28;20148;-85
2022/09/12 04:20:17;;;;;;;27.08;6.70;;;;;;;10.23;100.00;98494.31;2585295;28;20551;-85
2022/09/12 04:21:32;;;;;;;28.73;6.82;;;;;;;10.30;100.00;98495.88;2585381;28;20050;-85
2022/09/12 04:22:48;;;;;;;10.40;5.95;;;;;;;10.27;100.00;98490.75;2584289;28;20056;-88
2022/09/12 04:24:04;;;;;;;8.45;5.72;;;;;;;10.45;100.00;98489.41;2585581;28;20080;-87
2022/09/12 04:25:19;;;;;;;10.32;6.28;;;;;;;10.47;100.00;98492.84;2582492;28;20047;-84
2022/09/12 04:26:35;;;;;;;17.05;7.05;;;;;;;10.39;100.00;98492.16;2581046;28;20145;-85
2022/09/12 04:27:50;;;;;;;13.90;6.53;;;;;;;10.27;100.00;98493.34;2582710;28;20057;-86
2022/09/12 04:29:06;;;;;;;22.17;6.82;;;;;;;10.31;100.00;98498.44;2585643;28;20072;-85
2022/09/12 04:30:22;;;;;;;14.05;7.18;;;;;;;10.03;100.00;98496.53;2581593;28;20054;-84
2022/09/12 04:31:38;;;;;;;17.08;6.95;;;;;;;9.93;100.00;98494.19;2585961;28;20929;-88
2022/09/12 04:32:54;;;;;;;15.63;6.35;;;;;;;9.82;100.00;98491.84;2585255;28;20049;-86
2022/09/12 04:34:09;;;;;;;12.65;6.85;;;;;;;9.91;100.00;98494.22;2583090;28;20089;-85
2022/09/12 04:35:26;;;;;;;17.95;7.15;;;;;;;10.15;100.00;98492.78;2585280;28;20137;-85
2022/09/12 04:36:42;;;;;;;12.25;6.95;;;;;;;10.19;100.00;98498.75;2586633;28;20065;-86
2022/09/12 04:37:57;;;;;;;15.82;6.35;;;;;;;10.24;100.00;98491.66;2585958;28;20054;-85
2022/09/12 04:39:13;;;;;;;11.05;6.75;;;;;;;10.28;100.00;98498.53;2586125;28;20607;-87
2022/09/12 04:40:30;;;;;;;15.00;7.95;;;;;;;10.28;100.00;98498.53;2585493;28;20552;-85
2022/09/12 04:41:46;;;;;;;11.10;6.82;;;;;;;10.18;100.00;98490.06;2585675;28;20058;-89
2022/09/12 04:43:02;;;;;;;11.07;6.32;;;;;;;10.05;100.00;98501.75;2585298;28;20489;-87
2022/09/12 04:44:17;;;;;;;11.10;6.10;;;;;;;10.26;100.00;98495.09;2585623;28;20145;-87
2022/09/12 04:45:33;;;;;;;9.40;6.15;;;;;;;10.20;100.00;98494.41;2581611;28;20046;-85
2022/09/12 04:46:49;;;;;;;10.55;6.32;;;;;;;10.25;100.00;98497.75;2585565;28;20096;-83
2022/09/12 04:48:04;;;;;;;9.70;6.18;;;;;;;10.30;100.00;98490.66;2585206;28;20057;-84
2022/09/12 04:49:20;;;;;;;11.60;6.28;;;;;;;10.34;100.00;98492.28;2585996;28;20344;-85
2022/09/12 04:50:35;;;;;;;12.30;6.03;;;;;;;10.41;100.00;98486.03;2585846;28;20046;-84
2022/09/12 04:51:53;;;;;;;13.30;5.43;;;;;;;10.38;100.00;98490.44;2585820;28;20121;-84
2022/09/12 04:53:09;;;;;;;10.80;5.70;;;;;;;10.50;100.00;98482.31;2585703;28;20061;-84
2022/09/12 04:54:25;;;;;;;12.18;6.50;;;;;;;10.57;100.00;98481.22;2585765;28;20129;-83
2022/09/12 04:55:40;;;;;;;10.23;6.03;;;;;;;10.61;100.00;98484.63;2585875;28;20050;-84
2022/09/12 04:56:56;;;;;;;9.55;5.82;;;;;;;10.61;100.00;98476.78;2585299;28;20115;-84
2022/09/12 04:58:12;;;;;;;11.05;5.75;;;;;;;10.68;100.00;98480.06;2585873;28;20104;-85
2022/09/12 04:59:27;;;;;;;10.25;5.53;;;;;;;10.66;100.00;98479.25;2585400;28;20151;-84
2022/09/12 05:00:43;;;;;;;9.20;6.03;;;;;;;10.76;100.00;98483.34;2585729;28;20087;-86
2022/09/12 05:01:59;;;;;;;9.77;5.90;;;;;;;10.74;100.00;98486.00;2585589;28;20152;-84
2022/09/12 05:03:15;;;;;;;9.10;5.63;;;;;;;10.73;100.00;98484.28;2586023;28;20042;-84
2022/09/12 05:04:30;;;;;;;9.00;6.13;;;;;;;10.83;100.00;98484.88;2585417;28;20042;-84
2022/09/12 05:05:46;;;;;;;12.25;6.25;;;;;;;10.74;100.00;98487.75;2585598;28;20841;-87
2022/09/12 05:07:02;;;;;;;9.10;6.03;;;;;;;10.70;100.00;98488.75;2585597;28;20058;-85
2022/09/12 05:08:18;;;;;;;10.20;5.82;;;;;;;10.68;100.00;98487.94;2586152;28;20076;-84
2022/09/12 05:09:33;;;;;;;9.90;6.22;;;;;;;10.73;100.00;98492.13;2585355;28;20133;-87
2022/09/12 05:10:49;;;;;;;10.50;6.63;;;;;;;10.61;100.00;98495.09;2585999;28;20092;-84
2022/09/12 05:12:06;;;;;;;10.60;6.10;;;;;;;10.63;100.00;98500.31;2585524;28;20054;-84
2022/09/12 05:13:22;;;;;;;9.82;5.85;;;;;;;10.74;100.00;98498.22;2585418;28;20115;-84
2022/09/12 05:14:37;;;;;;;12.35;6.18;;;;;;;10.68;100.00;98495.78;2585497;28;20085;-87
2022/09/12 05:16:04;;;;;;;10.73;6.28;;;;;;;10.81;100.00;98493.66;2585746;28;20054;-84
2022/09/12 05:17:19;;;;;;;11.93;6.07;;;;;;;10.73;100.00;98494.75;2585628;28;20070;-84
2022/09/12 05:18:35;;;;;;;9.40;5.53;;;;;;;10.87;100.00;98496.97;2585785;28;20062;-84
2022/09/12 05:19:51;;;;;;;8.75;5.93;;;;;;;10.93;100.00;98502.97;2585504;28;20050;-85
2022/09/12 05:21:10;;;;;;;8.93;6.03;;;;;;;10.84;100.00;98496.22;2584988;28;20049;-84
2022/09/12 05:22:25;;;;;;;10.32;5.85;;;;;;;10.75;100.00;98499.94;2585525;28;20719;-88
2022/09/12 05:23:41;;;;;;;11.85;5.88;;;;;;;10.84;100.00;98509.31;2585277;28;20050;-87
2022/09/12 05:24:57;;;;;;;9.50;5.78;;;;;;;11.00;100.00;98507.09;2585780;28;20050;-85
2022/09/12 05:26:14;;;;;;;9.05;6.05;;;;;;;11.05;100.00;98506.97;2585420;28;20049;-84
2022/09/12 05:27:30;;;;;;;11.82;5.88;;;;;;;10.91;100.00;98510.00;2585701;28;20053;-85
2022/09/12 05:28:47;;;;;;;11.90;6.13;;;;;;;10.86;100.00;98505.75;2585326;28;20050;-84
2022/09/12 05:30:04;;;;;;;9.90;6.10;;;;;;;11.01;100.00;98507.06;2585414;28;20085;-88
2022/09/12 05:31:24;;;;;;;8.77;6.28;;;;;;;11.06;100.00;98509.56;2585540;28;20050;-86
2022/09/12 05:32:40;;;;;;;7.93;5.68;;;;;;;11.07;100.00;98507.78;2585381;28;20057;-84
2022/09/12 05:33:56;;;;;;;9.45;5.65;;;;;;;11.07;100.00;98510.41;2585390;28;20382;-84
2022/09/12 05:35:12;;;;;;;11.43;6.35;;;;;;;11.15;100.00;98508.44;2585640;28;20053;-85
2022/09/12 05:36:28;;;;;;;9.40;5.90;;;;;;;11.21;100.00;98513.47;2584942;28;20053;-85
2022/09/12 05:37:44;;;;;;;10.60;6.13;;;;;;;11.22;100.00;98509.13;2586363;28;20061;-85
2022/09/12 05:39:00;;;;;;;7.85;5.60;;;;;;;11.37;100.00;98507.78;2584971;28;20061;-84
2022/09/12 05:40:18;;;;;;;9.07;5.82;;;;;;;11.26;100.00;98506.38;2585504;28;20492;-92
2022/09/12 05:41:35;;;;;;;11.10;6.80;;;;;;;11.24;100.00;98505.53;2585257;28;20056;-92
2022/09/12 05:42:50;;;;;;;8.80;5.90;;;;;;;11.23;100.00;98503.81;2585563;28;20046;-89
2022/09/12 05:44:10;;;;;;;8.65;5.65;;;;;;;11.19;100.00;98509.22;2585109;28;20042;-84
2022/09/12 05:45:26;;;;;;;9.95;6.03;;;;;;;11.39;100.00;98501.59;2575565;28;20584;-85
2022/09/12 05:46:44;;;;;;;9.18;5.70;;;;;;;11.28;100.00;98507.19;2579474;28;20054;-86
2022/09/12 05:48:01;;;;;;;9.52;5.45;;;;;;;11.22;100.00;98506.50;2584640;28;20077;-85
2022/09/12 05:49:17;;;;;;;10.07;6.55;;;;;;;11.36;100.00;98511.31;2584855;28;20092;-85
2022/09/12 05:50:32;;;;;;;10.25;6.28;;;;;;;11.29;100.00;98505.41;2585649;28;20042;-85
2022/09/12 05:51:48;;;;;;;10.23;5.88;;;;;;;11.26;100.00;98503.75;2584812;28;20497;-85
2022/09/12 05:53:04;;;;;;;10.63;6.03;;;;;;;11.33;100.00;98503.53;2585453;28;20046;-88
2022/09/12 05:54:20;;;;;;;10.93;6.38;;;;;;;11.43;100.00;98511.06;2584923;28;20045;-85
2022/09/12 05:55:35;;;;;;;9.13;5.93;;;;;;;11.41;100.00;98507.66;2585239;28;20563;-89
2022/09/12 05:56:51;;;;;;;10.13;6.07;;;;;;;11.46;100.00;98501.44;2585737;28;20444;-86
2022/09/12 05:58:06;;;;;;;8.73;6.05;;;;;;;11.48;100.00;98516.19;2584982;28;20085;-85
2022/09/12 05:59:22;;;;;;;12.68;6.47;;;;;;;11.58;100.00;98516.75;2585118;28;20560;-85
2022/09/12 06:00:38;;;;;;;11.10;6.15;;;;;;;11.40;100.00;98508.56;2585143;28;20855;-84
2022/09/12 06:01:54;;;;;;;12.80;6.30;;;;;;;11.50;100.00;98510.91;2585272;28;20054;-85
2022/09/12 06:03:10;;;;;;;10.57;6.18;;;;;;;11.53;100.00;98503.81;2584656;28;20054;-84
2022/09/12 06:04:26;;;;;;;10.15;5.70;;;;;;;11.63;100.00;98508.75;2585760;28;20069;-84
2022/09/12 06:05:42;;;;;;;9.80;6.00;;;;;;;11.36;100.00;98506.94;2584947;28;20073;-84
2022/09/12 06:06:58;;;;;;;10.93;6.35;;;;;;;11.39;100.00;98506.84;2585866;28;20050;-84
2022/09/12 06:08:13;;;;;;;10.95;6.43;;;;;;;11.55;100.00;98509.00;2585228;28;20050;-85
2022/09/12 06:09:29;;;;;;;11.07;6.45;;;;;;;11.70;100.00;98503.25;2585579;28;20554;-91
2022/09/12 06:10:44;;;;;;;12.60;7.13;;;;;;;11.75;100.00;98504.91;2585078;28;20507;-88
2022/09/12 06:12:00;;;;;;;9.30;6.22;;;;;;;11.81;100.00;98507.31;2585031;28;20096;-85
2022/09/12 06:13:16;;;;;;;10.43;6.65;;;;;;;11.69;100.00;98506.78;2584535;28;20485;-88
2022/09/12 06:14:32;;;;;;;9.13;6.20;;;;;;;11.83;100.00;98508.13;2585371;28;20116;-85